sensor_id;sensor_type;location;lat;lon;timestamp;P1;durP1;ratioP1;P2;durP2;ratioP2
26946;SDS011;14501;52.282;10.560;2023-12-20T00:00:51;6.53;;;3.45;;
26946;SDS011;14501;52.282;10.560;2023-12-20T00:03:16;5.78;;;3.75;;
26946;SDS011;14501;52.282;10.560;2023-12-20T00:05:42;6.82;;;3.45;;
26946;SDS011;14501;52.282;10.560;2023-12-20T00:08:08;6.03;;;3.33;;
26946;SDS011;14501;52.282;10.560;2023-12-20T00:10:33;6.00;;;3.78;;
26946;SDS011;14501;52.282;10.560;2023-12-20T00:12:59;6.35;;;3.42;;
26946;SDS011;14501;52.282;10.560;2023-12-20T00:15:24;6.85;;;3.53;;
26946;SDS011;14501;52.282;10.560;2023-12-20T00:17:50;6.78;;;2.75;;
26946;SDS011;14501;52.282;10.560;2023-12-20T00:20:16;5.47;;;3.35;;
26946;SDS011;14501;52.282;10.560;2023-12-20T00:22:42;5.32;;;3.50;;
26946;SDS011;14501;52.282;10.560;2023-12-20T00:25:07;5.03;;;2.90;;
26946;SDS011;14501;52.282;10.560;2023-12-20T00:27:33;7.13;;;3.45;;
26946;SDS011;14501;52.282;10.560;2023-12-20T00:29:58;6.93;;;3.55;;
26946;SDS011;14501;52.282;10.560;2023-12-20T00:32:25;4.70;;;3.30;;
26946;SDS011;14501;52.282;10.560;2023-12-20T00:34:50;6.60;;;3.35;;
26946;SDS011;14501;52.282;10.560;2023-12-20T00:37:16;7.55;;;3.83;;
26946;SDS011;14501;52.282;10.560;2023-12-20T00:39:41;7.95;;;3.75;;
26946;SDS011;14501;52.282;10.560;2023-12-20T00:42:07;7.15;;;3.97;;
26946;SDS011;14501;52.282;10.560;2023-12-20T00:44:33;6.68;;;3.55;;
26946;SDS011;14501;52.282;10.560;2023-12-20T00:46:58;5.40;;;3.25;;
26946;SDS011;14501;52.282;10.560;2023-12-20T00:49:24;5.55;;;2.95;;
26946;SDS011;14501;52.282;10.560;2023-12-20T00:51:50;8.80;;;3.90;;
26946;SDS011;14501;52.282;10.560;2023-12-20T00:54:17;6.50;;;3.55;;
26946;SDS011;14501;52.282;10.560;2023-12-20T00:56:43;7.72;;;4.00;;
26946;SDS011;14501;52.282;10.560;2023-12-20T00:59:09;6.70;;;3.60;;
26946;SDS011;14501;52.282;10.560;2023-12-20T01:01:34;6.18;;;3.97;;
26946;SDS011;14501;52.282;10.560;2023-12-20T01:04:00;7.40;;;4.55;;
26946;SDS011;14501;52.282;10.560;2023-12-20T01:06:26;7.75;;;3.97;;
26946;SDS011;14501;52.282;10.560;2023-12-20T01:08:51;6.85;;;3.67;;
26946;SDS011;14501;52.282;10.560;2023-12-20T01:11:17;8.25;;;3.47;;
26946;SDS011;14501;52.282;10.560;2023-12-20T01:13:42;7.53;;;4.80;;
26946;SDS011;14501;52.282;10.560;2023-12-20T01:16:11;6.90;;;3.88;;
26946;SDS011;14501;52.282;10.560;2023-12-20T01:18:37;6.68;;;3.83;;
26946;SDS011;14501;52.282;10.560;2023-12-20T01:21:04;7.68;;;4.32;;
26946;SDS011;14501;52.282;10.560;2023-12-20T01:23:30;8.02;;;3.85;;
26946;SDS011;14501;52.282;10.560;2023-12-20T01:25:55;8.88;;;3.85;;
26946;SDS011;14501;52.282;10.560;2023-12-20T01:28:21;9.30;;;4.30;;
26946;SDS011;14501;52.282;10.560;2023-12-20T01:30:47;9.40;;;4.22;;
26946;SDS011;14501;52.282;10.560;2023-12-20T01:33:13;6.47;;;3.67;;
26946;SDS011;14501;52.282;10.560;2023-12-20T01:35:38;7.93;;;4.47;;
26946;SDS011;14501;52.282;10.560;2023-12-20T01:38:04;11.18;;;4.35;;
26946;SDS011;14501;52.282;10.560;2023-12-20T01:40:29;8.90;;;3.90;;
26946;SDS011;14501;52.282;10.560;2023-12-20T01:43:02;4.80;;;3.25;;
26946;SDS011;14501;52.282;10.560;2023-12-20T01:45:32;6.28;;;3.22;;
26946;SDS011;14501;52.282;10.560;2023-12-20T01:47:58;7.82;;;3.47;;
26946;SDS011;14501;52.282;10.560;2023-12-20T01:50:25;10.00;;;3.28;;
26946;SDS011;14501;52.282;10.560;2023-12-20T01:52:51;4.90;;;2.53;;
26946;SDS011;14501;52.282;10.560;2023-12-20T01:55:20;5.40;;;2.45;;
26946;SDS011;14501;52.282;10.560;2023-12-20T01:57:46;8.38;;;2.47;;
26946;SDS011;14501;52.282;10.560;2023-12-20T02:00:12;4.55;;;2.53;;
26946;SDS011;14501;52.282;10.560;2023-12-20T02:02:40;8.32;;;3.03;;
26946;SDS011;14501;52.282;10.560;2023-12-20T02:05:09;6.47;;;2.42;;
26946;SDS011;14501;52.282;10.560;2023-12-20T02:07:34;7.22;;;2.20;;
26946;SDS011;14501;52.282;10.560;2023-12-20T02:10:03;2.67;;;1.38;;
26946;SDS011;14501;52.282;10.560;2023-12-20T02:12:29;2.78;;;1.90;;
26946;SDS011;14501;52.282;10.560;2023-12-20T02:14:55;5.05;;;2.08;;
26946;SDS011;14501;52.282;10.560;2023-12-20T02:19:49;6.20;;;2.55;;
26946;SDS011;14501;52.282;10.560;2023-12-20T02:22:15;4.43;;;2.00;;
26946;SDS011;14501;52.282;10.560;2023-12-20T02:24:40;8.70;;;2.10;;
26946;SDS011;14501;52.282;10.560;2023-12-20T02:27:06;5.82;;;1.92;;
26946;SDS011;14501;52.282;10.560;2023-12-20T02:29:33;4.85;;;2.25;;
26946;SDS011;14501;52.282;10.560;2023-12-20T02:31:59;4.93;;;2.03;;
26946;SDS011;14501;52.282;10.560;2023-12-20T02:34:25;3.83;;;1.52;;
26946;SDS011;14501;52.282;10.560;2023-12-20T02:36:51;2.80;;;1.95;;
26946;SDS011;14501;52.282;10.560;2023-12-20T02:39:16;9.38;;;2.13;;
26946;SDS011;14501;52.282;10.560;2023-12-20T02:41:43;4.38;;;1.50;;
26946;SDS011;14501;52.282;10.560;2023-12-20T02:44:08;5.43;;;1.83;;
26946;SDS011;14501;52.282;10.560;2023-12-20T02:46:34;2.95;;;1.23;;
26946;SDS011;14501;52.282;10.560;2023-12-20T02:49:00;3.63;;;2.00;;
26946;SDS011;14501;52.282;10.560;2023-12-20T02:51:25;8.20;;;1.90;;
26946;SDS011;14501;52.282;10.560;2023-12-20T02:53:51;6.22;;;2.13;;
26946;SDS011;14501;52.282;10.560;2023-12-20T02:56:16;9.77;;;1.70;;
26946;SDS011;14501;52.282;10.560;2023-12-20T02:58:42;2.72;;;1.50;;
26946;SDS011;14501;52.282;10.560;2023-12-20T03:01:08;3.92;;;1.50;;
26946;SDS011;14501;52.282;10.560;2023-12-20T03:03:33;4.80;;;1.33;;
26946;SDS011;14501;52.282;10.560;2023-12-20T03:05:59;4.50;;;1.42;;
26946;SDS011;14501;52.282;10.560;2023-12-20T03:08:25;10.02;;;1.20;;
26946;SDS011;14501;52.282;10.560;2023-12-20T03:10:51;3.67;;;1.10;;
26946;SDS011;14501;52.282;10.560;2023-12-20T03:13:16;2.05;;;0.95;;
26946;SDS011;14501;52.282;10.560;2023-12-20T03:15:42;5.35;;;0.90;;
26946;SDS011;14501;52.282;10.560;2023-12-20T03:18:07;2.78;;;0.80;;
26946;SDS011;14501;52.282;10.560;2023-12-20T03:20:33;0.60;;;0.40;;
26946;SDS011;14501;52.282;10.560;2023-12-20T03:23:02;2.03;;;0.73;;
26946;SDS011;14501;52.282;10.560;2023-12-20T03:25:28;2.65;;;1.00;;
26946;SDS011;14501;52.282;10.560;2023-12-20T03:27:54;2.72;;;1.02;;
26946;SDS011;14501;52.282;10.560;2023-12-20T03:30:20;2.28;;;0.63;;
26946;SDS011;14501;52.282;10.560;2023-12-20T03:32:45;3.65;;;1.02;;
26946;SDS011;14501;52.282;10.560;2023-12-20T03:35:11;4.78;;;0.98;;
26946;SDS011;14501;52.282;10.560;2023-12-20T03:37:37;3.70;;;0.95;;
26946;SDS011;14501;52.282;10.560;2023-12-20T03:40:03;2.70;;;1.63;;
26946;SDS011;14501;52.282;10.560;2023-12-20T03:42:29;4.80;;;0.82;;
26946;SDS011;14501;52.282;10.560;2023-12-20T03:44:55;6.18;;;0.85;;
26946;SDS011;14501;52.282;10.560;2023-12-20T03:47:20;4.38;;;0.77;;
26946;SDS011;14501;52.282;10.560;2023-12-20T03:49:46;5.30;;;0.73;;
26946;SDS011;14501;52.282;10.560;2023-12-20T03:52:12;1.50;;;0.43;;
26946;SDS011;14501;52.282;10.560;2023-12-20T03:54:38;1.27;;;0.70;;
26946;SDS011;14501;52.282;10.560;2023-12-20T03:57:03;1.67;;;0.50;;
26946;SDS011;14501;52.282;10.560;2023-12-20T03:59:29;0.80;;;0.70;;
26946;SDS011;14501;52.282;10.560;2023-12-20T04:01:59;0.90;;;0.50;;
26946;SDS011;14501;52.282;10.560;2023-12-20T04:04:25;4.80;;;0.60;;
26946;SDS011;14501;52.282;10.560;2023-12-20T04:06:50;7.05;;;1.00;;
26946;SDS011;14501;52.282;10.560;2023-12-20T04:09:16;1.90;;;0.60;;
26946;SDS011;14501;52.282;10.560;2023-12-20T04:11:41;0.90;;;0.85;;
26946;SDS011;14501;52.282;10.560;2023-12-20T04:14:07;1.15;;;0.80;;
26946;SDS011;14501;52.282;10.560;2023-12-20T04:16:32;0.63;;;0.60;;
26946;SDS011;14501;52.282;10.560;2023-12-20T04:18:58;3.10;;;0.75;;
26946;SDS011;14501;52.282;10.560;2023-12-20T04:21:23;2.40;;;0.90;;
26946;SDS011;14501;52.282;10.560;2023-12-20T04:23:49;0.68;;;0.50;;
26946;SDS011;14501;52.282;10.560;2023-12-20T04:26:15;2.97;;;0.80;;
26946;SDS011;14501;52.282;10.560;2023-12-20T04:28:40;2.53;;;0.73;;
26946;SDS011;14501;52.282;10.560;2023-12-20T04:31:06;1.95;;;0.70;;
26946;SDS011;14501;52.282;10.560;2023-12-20T04:33:32;4.97;;;0.70;;
26946;SDS011;14501;52.282;10.560;2023-12-20T04:35:57;1.63;;;0.55;;
26946;SDS011;14501;52.282;10.560;2023-12-20T04:38:24;4.35;;;1.17;;
26946;SDS011;14501;52.282;10.560;2023-12-20T04:40:50;5.68;;;0.80;;
26946;SDS011;14501;52.282;10.560;2023-12-20T04:43:16;4.85;;;0.95;;
26946;SDS011;14501;52.282;10.560;2023-12-20T04:45:42;1.90;;;0.95;;
26946;SDS011;14501;52.282;10.560;2023-12-20T04:48:07;1.75;;;0.60;;
26946;SDS011;14501;52.282;10.560;2023-12-20T04:50:33;3.42;;;1.63;;
26946;SDS011;14501;52.282;10.560;2023-12-20T04:52:58;4.50;;;1.10;;
26946;SDS011;14501;52.282;10.560;2023-12-20T04:55:24;2.75;;;0.98;;
26946;SDS011;14501;52.282;10.560;2023-12-20T04:57:49;6.20;;;1.05;;
26946;SDS011;14501;52.282;10.560;2023-12-20T05:00:15;1.35;;;0.85;;
26946;SDS011;14501;52.282;10.560;2023-12-20T05:02:41;8.93;;;1.23;;
26946;SDS011;14501;52.282;10.560;2023-12-20T05:05:07;1.33;;;1.08;;
26946;SDS011;14501;52.282;10.560;2023-12-20T05:07:32;3.63;;;0.98;;
26946;SDS011;14501;52.282;10.560;2023-12-20T05:09:58;1.80;;;0.70;;
26946;SDS011;14501;52.282;10.560;2023-12-20T05:12:24;6.47;;;1.05;;
26946;SDS011;14501;52.282;10.560;2023-12-20T05:14:50;1.20;;;0.70;;
26946;SDS011;14501;52.282;10.560;2023-12-20T05:17:17;1.05;;;0.73;;
26946;SDS011;14501;52.282;10.560;2023-12-20T05:19:42;2.50;;;0.73;;
26946;SDS011;14501;52.282;10.560;2023-12-20T05:22:08;1.77;;;0.80;;
26946;SDS011;14501;52.282;10.560;2023-12-20T05:24:34;3.63;;;0.90;;
26946;SDS011;14501;52.282;10.560;2023-12-20T05:27:00;5.38;;;0.90;;
26946;SDS011;14501;52.282;10.560;2023-12-20T05:29:25;6.35;;;0.63;;
26946;SDS011;14501;52.282;10.560;2023-12-20T05:31:51;3.40;;;1.30;;
26946;SDS011;14501;52.282;10.560;2023-12-20T05:34:16;6.90;;;1.33;;
26946;SDS011;14501;52.282;10.560;2023-12-20T05:36:42;5.53;;;0.93;;
26946;SDS011;14501;52.282;10.560;2023-12-20T05:39:08;3.13;;;0.80;;
26946;SDS011;14501;52.282;10.560;2023-12-20T05:41:33;9.18;;;1.30;;
26946;SDS011;14501;52.282;10.560;2023-12-20T05:43:59;4.43;;;1.00;;
26946;SDS011;14501;52.282;10.560;2023-12-20T05:46:25;3.15;;;0.98;;
26946;SDS011;14501;52.282;10.560;2023-12-20T05:48:51;5.03;;;1.60;;
26946;SDS011;14501;52.282;10.560;2023-12-20T05:51:17;2.65;;;1.30;;
26946;SDS011;14501;52.282;10.560;2023-12-20T05:53:42;5.95;;;1.52;;
26946;SDS011;14501;52.282;10.560;2023-12-20T05:56:09;8.30;;;1.42;;
26946;SDS011;14501;52.282;10.560;2023-12-20T05:58:34;12.80;;;2.17;;
26946;SDS011;14501;52.282;10.560;2023-12-20T06:01:01;5.60;;;1.85;;
26946;SDS011;14501;52.282;10.560;2023-12-20T06:03:29;9.80;;;1.77;;
26946;SDS011;14501;52.282;10.560;2023-12-20T06:05:54;6.43;;;1.70;;
26946;SDS011;14501;52.282;10.560;2023-12-20T06:08:20;5.32;;;1.80;;
26946;SDS011;14501;52.282;10.560;2023-12-20T06:10:45;7.18;;;2.72;;
26946;SDS011;14501;52.282;10.560;2023-12-20T06:13:11;2.95;;;1.42;;
26946;SDS011;14501;52.282;10.560;2023-12-20T06:15:38;4.97;;;1.50;;
26946;SDS011;14501;52.282;10.560;2023-12-20T06:18:05;5.35;;;2.00;;
26946;SDS011;14501;52.282;10.560;2023-12-20T06:20:30;7.63;;;1.92;;
26946;SDS011;14501;52.282;10.560;2023-12-20T06:22:56;4.65;;;1.73;;
26946;SDS011;14501;52.282;10.560;2023-12-20T06:25:22;6.40;;;1.48;;
26946;SDS011;14501;52.282;10.560;2023-12-20T06:27:48;5.40;;;1.80;;
26946;SDS011;14501;52.282;10.560;2023-12-20T06:30:13;3.90;;;1.00;;
26946;SDS011;14501;52.282;10.560;2023-12-20T06:32:39;5.68;;;2.90;;
26946;SDS011;14501;52.282;10.560;2023-12-20T06:35:05;6.43;;;1.63;;
26946;SDS011;14501;52.282;10.560;2023-12-20T06:37:31;2.30;;;0.98;;
26946;SDS011;14501;52.282;10.560;2023-12-20T06:39:56;3.95;;;1.50;;
26946;SDS011;14501;52.282;10.560;2023-12-20T06:42:22;4.57;;;1.10;;
26946;SDS011;14501;52.282;10.560;2023-12-20T06:44:48;8.20;;;1.98;;
26946;SDS011;14501;52.282;10.560;2023-12-20T06:47:13;4.20;;;1.30;;
26946;SDS011;14501;52.282;10.560;2023-12-20T06:49:39;2.40;;;1.60;;
26946;SDS011;14501;52.282;10.560;2023-12-20T06:52:05;2.78;;;1.20;;
26946;SDS011;14501;52.282;10.560;2023-12-20T06:54:31;2.33;;;1.10;;
26946;SDS011;14501;52.282;10.560;2023-12-20T06:56:59;4.03;;;1.42;;
26946;SDS011;14501;52.282;10.560;2023-12-20T06:59:25;1.27;;;0.90;;
26946;SDS011;14501;52.282;10.560;2023-12-20T07:01:51;2.67;;;1.70;;
26946;SDS011;14501;52.282;10.560;2023-12-20T07:04:16;4.97;;;1.30;;
26946;SDS011;14501;52.282;10.560;2023-12-20T07:06:47;2.30;;;1.40;;
26946;SDS011;14501;52.282;10.560;2023-12-20T07:09:13;10.80;;;2.08;;
26946;SDS011;14501;52.282;10.560;2023-12-20T07:11:40;5.22;;;1.67;;
26946;SDS011;14501;52.282;10.560;2023-12-20T07:14:05;4.63;;;1.58;;
26946;SDS011;14501;52.282;10.560;2023-12-20T07:16:31;8.75;;;2.00;;
26946;SDS011;14501;52.282;10.560;2023-12-20T07:18:57;2.15;;;1.55;;
26946;SDS011;14501;52.282;10.560;2023-12-20T07:21:22;4.90;;;1.63;;
26946;SDS011;14501;52.282;10.560;2023-12-20T07:23:48;2.88;;;1.40;;
26946;SDS011;14501;52.282;10.560;2023-12-20T07:26:14;7.80;;;1.73;;
26946;SDS011;14501;52.282;10.560;2023-12-20T07:28:40;4.95;;;1.70;;
26946;SDS011;14501;52.282;10.560;2023-12-20T07:31:06;4.80;;;1.50;;
26946;SDS011;14501;52.282;10.560;2023-12-20T07:33:31;2.65;;;1.27;;
26946;SDS011;14501;52.282;10.560;2023-12-20T07:35:59;5.07;;;1.58;;
26946;SDS011;14501;52.282;10.560;2023-12-20T07:38:24;4.30;;;1.80;;
26946;SDS011;14501;52.282;10.560;2023-12-20T07:40:50;6.35;;;1.55;;
26946;SDS011;14501;52.282;10.560;2023-12-20T07:43:16;5.55;;;1.75;;
26946;SDS011;14501;52.282;10.560;2023-12-20T07:45:41;5.25;;;2.13;;
26946;SDS011;14501;52.282;10.560;2023-12-20T07:48:07;1.33;;;1.02;;
26946;SDS011;14501;52.282;10.560;2023-12-20T07:50:33;2.97;;;1.50;;
26946;SDS011;14501;52.282;10.560;2023-12-20T07:52:59;5.40;;;1.58;;
26946;SDS011;14501;52.282;10.560;2023-12-20T07:55:25;2.17;;;1.10;;
26946;SDS011;14501;52.282;10.560;2023-12-20T07:57:51;9.93;;;1.45;;
26946;SDS011;14501;52.282;10.560;2023-12-20T08:00:17;3.05;;;1.08;;
26946;SDS011;14501;52.282;10.560;2023-12-20T08:02:43;1.65;;;1.30;;
26946;SDS011;14501;52.282;10.560;2023-12-20T08:05:09;7.93;;;1.63;;
26946;SDS011;14501;52.282;10.560;2023-12-20T08:07:34;1.75;;;1.02;;
26946;SDS011;14501;52.282;10.560;2023-12-20T08:10:00;2.75;;;1.48;;
26946;SDS011;14501;52.282;10.560;2023-12-20T08:12:25;4.40;;;1.10;;
26946;SDS011;14501;52.282;10.560;2023-12-20T08:14:52;2.53;;;1.42;;
26946;SDS011;14501;52.282;10.560;2023-12-20T08:17:18;11.60;;;2.35;;
26946;SDS011;14501;52.282;10.560;2023-12-20T08:19:44;9.80;;;1.60;;
26946;SDS011;14501;52.282;10.560;2023-12-20T08:22:10;5.43;;;1.80;;
26946;SDS011;14501;52.282;10.560;2023-12-20T08:24:36;6.22;;;1.52;;
26946;SDS011;14501;52.282;10.560;2023-12-20T08:27:02;4.82;;;1.80;;
26946;SDS011;14501;52.282;10.560;2023-12-20T08:29:27;4.10;;;1.50;;
26946;SDS011;14501;52.282;10.560;2023-12-20T08:31:53;3.75;;;1.50;;
26946;SDS011;14501;52.282;10.560;2023-12-20T08:34:20;3.30;;;1.00;;
26946;SDS011;14501;52.282;10.560;2023-12-20T08:36:46;9.02;;;2.83;;
26946;SDS011;14501;52.282;10.560;2023-12-20T08:39:12;2.80;;;1.10;;
26946;SDS011;14501;52.282;10.560;2023-12-20T08:41:38;5.80;;;1.73;;
26946;SDS011;14501;52.282;10.560;2023-12-20T08:44:03;4.40;;;1.55;;
26946;SDS011;14501;52.282;10.560;2023-12-20T08:46:29;8.73;;;1.60;;
26946;SDS011;14501;52.282;10.560;2023-12-20T08:48:54;9.05;;;1.67;;
26946;SDS011;14501;52.282;10.560;2023-12-20T08:51:20;2.90;;;1.50;;
26946;SDS011;14501;52.282;10.560;2023-12-20T08:53:48;5.10;;;1.63;;
26946;SDS011;14501;52.282;10.560;2023-12-20T08:56:14;3.83;;;1.35;;
26946;SDS011;14501;52.282;10.560;2023-12-20T08:58:40;5.35;;;1.30;;
26946;SDS011;14501;52.282;10.560;2023-12-20T09:01:06;4.85;;;2.13;;
26946;SDS011;14501;52.282;10.560;2023-12-20T09:03:32;3.65;;;1.10;;
26946;SDS011;14501;52.282;10.560;2023-12-20T09:05:58;3.00;;;1.58;;
26946;SDS011;14501;52.282;10.560;2023-12-20T09:08:23;7.22;;;1.98;;
26946;SDS011;14501;52.282;10.560;2023-12-20T09:10:49;11.52;;;2.00;;
26946;SDS011;14501;52.282;10.560;2023-12-20T09:13:15;5.65;;;1.60;;
26946;SDS011;14501;52.282;10.560;2023-12-20T09:15:40;2.20;;;1.67;;
26946;SDS011;14501;52.282;10.560;2023-12-20T09:18:06;7.45;;;1.67;;
26946;SDS011;14501;52.282;10.560;2023-12-20T09:20:32;5.60;;;2.60;;
26946;SDS011;14501;52.282;10.560;2023-12-20T09:22:58;3.83;;;1.63;;
26946;SDS011;14501;52.282;10.560;2023-12-20T09:25:24;5.32;;;1.60;;
26946;SDS011;14501;52.282;10.560;2023-12-20T09:27:51;4.80;;;1.40;;
26946;SDS011;14501;52.282;10.560;2023-12-20T09:30:17;7.30;;;1.80;;
26946;SDS011;14501;52.282;10.560;2023-12-20T09:32:43;9.70;;;1.92;;
26946;SDS011;14501;52.282;10.560;2023-12-20T09:35:09;5.97;;;1.60;;
26946;SDS011;14501;52.282;10.560;2023-12-20T09:37:34;4.45;;;1.45;;
26946;SDS011;14501;52.282;10.560;2023-12-20T09:40:00;5.65;;;1.35;;
26946;SDS011;14501;52.282;10.560;2023-12-20T09:45:03;3.13;;;1.38;;
26946;SDS011;14501;52.282;10.560;2023-12-20T09:47:32;3.85;;;1.08;;
26946;SDS011;14501;52.282;10.560;2023-12-20T09:49:57;6.88;;;1.63;;
26946;SDS011;14501;52.282;10.560;2023-12-20T09:52:23;5.53;;;1.38;;
26946;SDS011;14501;52.282;10.560;2023-12-20T09:54:49;5.80;;;1.40;;
26946;SDS011;14501;52.282;10.560;2023-12-20T09:57:17;3.45;;;1.17;;
26946;SDS011;14501;52.282;10.560;2023-12-20T09:59:43;4.68;;;1.42;;
26946;SDS011;14501;52.282;10.560;2023-12-20T10:02:09;3.60;;;1.60;;
26946;SDS011;14501;52.282;10.560;2023-12-20T10:04:39;5.78;;;1.55;;
26946;SDS011;14501;52.282;10.560;2023-12-20T10:07:08;2.28;;;1.15;;
26946;SDS011;14501;52.282;10.560;2023-12-20T10:09:35;2.40;;;1.38;;
26946;SDS011;14501;52.282;10.560;2023-12-20T10:12:01;3.33;;;1.30;;
26946;SDS011;14501;52.282;10.560;2023-12-20T10:14:27;3.58;;;1.30;;
26946;SDS011;14501;52.282;10.560;2023-12-20T10:16:52;7.00;;;1.70;;
26946;SDS011;14501;52.282;10.560;2023-12-20T10:19:19;4.70;;;1.30;;
26946;SDS011;14501;52.282;10.560;2023-12-20T10:21:45;4.15;;;2.25;;
26946;SDS011;14501;52.282;10.560;2023-12-20T10:24:11;7.40;;;1.98;;
26946;SDS011;14501;52.282;10.560;2023-12-20T10:26:42;2.58;;;1.40;;
26946;SDS011;14501;52.282;10.560;2023-12-20T10:29:08;6.80;;;1.70;;
26946;SDS011;14501;52.282;10.560;2023-12-20T10:31:35;10.13;;;1.40;;
26946;SDS011;14501;52.282;10.560;2023-12-20T10:34:01;3.53;;;1.40;;
26946;SDS011;14501;52.282;10.560;2023-12-20T10:36:28;2.95;;;1.20;;
26946;SDS011;14501;52.282;10.560;2023-12-20T10:38:55;3.03;;;1.10;;
26946;SDS011;14501;52.282;10.560;2023-12-20T10:44:00;8.00;;;1.27;;
26946;SDS011;14501;52.282;10.560;2023-12-20T10:46:32;4.63;;;1.48;;
26946;SDS011;14501;52.282;10.560;2023-12-20T10:48:58;6.55;;;1.30;;
26946;SDS011;14501;52.282;10.560;2023-12-20T10:51:26;8.68;;;1.55;;
26946;SDS011;14501;52.282;10.560;2023-12-20T10:53:54;2.58;;;1.30;;
26946;SDS011;14501;52.282;10.560;2023-12-20T10:56:20;4.80;;;1.67;;
26946;SDS011;14501;52.282;10.560;2023-12-20T10:58:47;7.93;;;1.48;;
26946;SDS011;14501;52.282;10.560;2023-12-20T11:01:14;5.57;;;1.42;;
26946;SDS011;14501;52.282;10.560;2023-12-20T11:03:44;4.65;;;1.35;;
26946;SDS011;14501;52.282;10.560;2023-12-20T11:09:12;2.15;;;1.60;;
26946;SDS011;14501;52.282;10.560;2023-12-20T11:15:05;3.55;;;1.40;;
26946;SDS011;14501;52.282;10.560;2023-12-20T11:17:32;2.80;;;1.70;;
26946;SDS011;14501;52.282;10.560;2023-12-20T11:22:27;2.95;;;1.63;;
26946;SDS011;14501;52.282;10.560;2023-12-20T11:24:57;4.32;;;1.80;;
26946;SDS011;14501;52.282;10.560;2023-12-20T11:27:34;2.53;;;1.67;;
26946;SDS011;14501;52.282;10.560;2023-12-20T11:30:02;4.82;;;1.95;;
26946;SDS011;14501;52.282;10.560;2023-12-20T11:32:31;5.50;;;2.10;;
26946;SDS011;14501;52.282;10.560;2023-12-20T11:35:20;3.05;;;2.00;;
26946;SDS011;14501;52.282;10.560;2023-12-20T11:37:45;5.55;;;1.95;;
26946;SDS011;14501;52.282;10.560;2023-12-20T11:40:15;3.53;;;1.98;;
26946;SDS011;14501;52.282;10.560;2023-12-20T11:42:48;2.90;;;1.75;;
26946;SDS011;14501;52.282;10.560;2023-12-20T11:45:15;4.22;;;3.00;;
26946;SDS011;14501;52.282;10.560;2023-12-20T11:47:45;4.80;;;2.08;;
26946;SDS011;14501;52.282;10.560;2023-12-20T11:50:12;4.28;;;1.75;;
26946;SDS011;14501;52.282;10.560;2023-12-20T11:52:38;1.75;;;1.45;;
26946;SDS011;14501;52.282;10.560;2023-12-20T11:55:04;4.90;;;1.92;;
26946;SDS011;14501;52.282;10.560;2023-12-20T11:57:30;10.32;;;2.13;;
26946;SDS011;14501;52.282;10.560;2023-12-20T11:59:56;3.95;;;2.08;;
26946;SDS011;14501;52.282;10.560;2023-12-20T12:02:22;4.97;;;2.25;;
26946;SDS011;14501;52.282;10.560;2023-12-20T12:04:51;6.03;;;1.92;;
26946;SDS011;14501;52.282;10.560;2023-12-20T12:07:23;3.22;;;2.13;;
26946;SDS011;14501;52.282;10.560;2023-12-20T12:09:49;4.45;;;2.15;;
26946;SDS011;14501;52.282;10.560;2023-12-20T12:12:15;4.85;;;2.38;;
26946;SDS011;14501;52.282;10.560;2023-12-20T12:14:41;3.33;;;2.33;;
26946;SDS011;14501;52.282;10.560;2023-12-20T12:17:13;5.50;;;2.33;;
26946;SDS011;14501;52.282;10.560;2023-12-20T12:19:40;6.18;;;1.95;;
26946;SDS011;14501;52.282;10.560;2023-12-20T12:22:06;4.05;;;1.55;;
26946;SDS011;14501;52.282;10.560;2023-12-20T12:24:34;4.32;;;1.60;;
26946;SDS011;14501;52.282;10.560;2023-12-20T12:27:00;4.80;;;1.83;;
26946;SDS011;14501;52.282;10.560;2023-12-20T12:29:25;7.53;;;2.10;;
26946;SDS011;14501;52.282;10.560;2023-12-20T12:31:51;3.35;;;1.60;;
26946;SDS011;14501;52.282;10.560;2023-12-20T12:34:17;2.15;;;1.48;;
26946;SDS011;14501;52.282;10.560;2023-12-20T12:36:43;1.35;;;1.00;;
26946;SDS011;14501;52.282;10.560;2023-12-20T12:39:12;3.35;;;1.88;;
26946;SDS011;14501;52.282;10.560;2023-12-20T12:41:40;3.90;;;1.45;;
26946;SDS011;14501;52.282;10.560;2023-12-20T12:44:06;6.95;;;1.40;;
26946;SDS011;14501;52.282;10.560;2023-12-20T12:46:32;1.55;;;1.08;;
26946;SDS011;14501;52.282;10.560;2023-12-20T12:49:04;1.00;;;1.00;;
26946;SDS011;14501;52.282;10.560;2023-12-20T12:51:30;4.07;;;0.95;;
26946;SDS011;14501;52.282;10.560;2023-12-20T12:53:56;4.40;;;1.20;;
26946;SDS011;14501;52.282;10.560;2023-12-20T12:56:22;2.65;;;1.02;;
26946;SDS011;14501;52.282;10.560;2023-12-20T12:58:48;1.60;;;0.70;;
26946;SDS011;14501;52.282;10.560;2023-12-20T13:01:14;2.17;;;0.50;;
26946;SDS011;14501;52.282;10.560;2023-12-20T13:03:39;0.70;;;0.45;;
26946;SDS011;14501;52.282;10.560;2023-12-20T13:06:05;0.98;;;0.70;;
26946;SDS011;14501;52.282;10.560;2023-12-20T13:08:33;0.70;;;0.40;;
26946;SDS011;14501;52.282;10.560;2023-12-20T13:10:59;1.48;;;0.60;;
26946;SDS011;14501;52.282;10.560;2023-12-20T13:13:28;0.57;;;0.50;;
26946;SDS011;14501;52.282;10.560;2023-12-20T13:15:54;1.75;;;0.20;;
26946;SDS011;14501;52.282;10.560;2023-12-20T13:18:20;0.35;;;0.35;;
26946;SDS011;14501;52.282;10.560;2023-12-20T13:20:46;2.28;;;0.80;;
26946;SDS011;14501;52.282;10.560;2023-12-20T13:23:12;0.30;;;0.30;;
26946;SDS011;14501;52.282;10.560;2023-12-20T13:25:39;0.52;;;0.52;;
26946;SDS011;14501;52.282;10.560;2023-12-20T13:28:05;1.80;;;0.52;;
26946;SDS011;14501;52.282;10.560;2023-12-20T13:30:31;1.60;;;0.43;;
26946;SDS011;14501;52.282;10.560;2023-12-20T13:32:56;1.08;;;0.30;;
26946;SDS011;14501;52.282;10.560;2023-12-20T13:35:22;0.30;;;0.30;;
26946;SDS011;14501;52.282;10.560;2023-12-20T13:37:47;0.55;;;0.45;;
26946;SDS011;14501;52.282;10.560;2023-12-20T13:40:13;0.50;;;0.35;;
26946;SDS011;14501;52.282;10.560;2023-12-20T13:42:39;0.20;;;0.20;;
26946;SDS011;14501;52.282;10.560;2023-12-20T13:45:05;3.00;;;0.60;;
26946;SDS011;14501;52.282;10.560;2023-12-20T13:47:32;0.25;;;0.25;;
26946;SDS011;14501;52.282;10.560;2023-12-20T13:49:57;0.40;;;0.35;;
26946;SDS011;14501;52.282;10.560;2023-12-20T13:52:23;0.60;;;0.50;;
26946;SDS011;14501;52.282;10.560;2023-12-20T13:54:49;2.78;;;0.52;;
26946;SDS011;14501;52.282;10.560;2023-12-20T13:57:14;0.45;;;0.30;;
26946;SDS011;14501;52.282;10.560;2023-12-20T13:59:40;4.70;;;0.50;;
26946;SDS011;14501;52.282;10.560;2023-12-20T14:02:06;2.60;;;0.57;;
26946;SDS011;14501;52.282;10.560;2023-12-20T14:04:31;1.02;;;0.47;;
26946;SDS011;14501;52.282;10.560;2023-12-20T14:06:57;1.52;;;0.50;;
26946;SDS011;14501;52.282;10.560;2023-12-20T14:09:23;1.77;;;0.57;;
26946;SDS011;14501;52.282;10.560;2023-12-20T14:11:48;0.30;;;0.30;;
26946;SDS011;14501;52.282;10.560;2023-12-20T14:14:14;3.70;;;0.52;;
26946;SDS011;14501;52.282;10.560;2023-12-20T14:16:40;0.65;;;0.22;;
26946;SDS011;14501;52.282;10.560;2023-12-20T14:19:06;1.30;;;0.60;;
26946;SDS011;14501;52.282;10.560;2023-12-20T14:21:34;3.38;;;0.65;;
26946;SDS011;14501;52.282;10.560;2023-12-20T14:24:00;2.50;;;0.40;;
26946;SDS011;14501;52.282;10.560;2023-12-20T14:26:25;1.50;;;0.70;;
26946;SDS011;14501;52.282;10.560;2023-12-20T14:28:53;1.02;;;0.40;;
26946;SDS011;14501;52.282;10.560;2023-12-20T14:31:19;1.23;;;0.45;;
26946;SDS011;14501;52.282;10.560;2023-12-20T14:33:44;2.30;;;0.50;;
26946;SDS011;14501;52.282;10.560;2023-12-20T14:36:11;1.10;;;0.50;;
26946;SDS011;14501;52.282;10.560;2023-12-20T14:38:36;2.05;;;0.43;;
26946;SDS011;14501;52.282;10.560;2023-12-20T14:41:02;1.50;;;0.47;;
26946;SDS011;14501;52.282;10.560;2023-12-20T14:43:30;1.67;;;0.50;;